createdAt,value
2022-08-30T00:01:22.241Z,3.03
2022-08-30T00:03:49.605Z,3.10
2022-08-30T00:06:18.859Z,3.03
2022-08-30T00:08:46.886Z,3.17
2022-08-30T00:11:15.666Z,3.47
2022-08-30T00:13:44.577Z,2.97
2022-08-30T00:16:13.544Z,3.40
2022-08-30T00:18:40.829Z,3.20
2022-08-30T00:21:09.160Z,3.60
2022-08-30T00:23:36.715Z,3.50
2022-08-30T00:26:03.936Z,3.40
2022-08-30T00:28:31.087Z,2.40
2022-08-30T00:30:58.298Z,3.50
2022-08-30T00:33:26.860Z,2.87
2022-08-30T00:35:54.029Z,2.70
2022-08-30T00:38:21.175Z,3.23
2022-08-30T00:40:48.373Z,3.37
2022-08-30T00:43:19.331Z,3.10
2022-08-30T00:45:46.788Z,3.93
2022-08-30T00:48:13.990Z,2.83
2022-08-30T00:50:43.477Z,2.80
2022-08-30T00:53:13.613Z,3.03
2022-08-30T00:55:42.055Z,3.53
2022-08-30T00:58:13.711Z,3.30
2022-08-30T01:00:40.913Z,3.10
2022-08-30T01:03:08.042Z,3.37
2022-08-30T01:05:35.416Z,3.57
2022-08-30T01:08:04.151Z,3.90
2022-08-30T01:10:31.414Z,3.67
2022-08-30T01:12:58.613Z,3.27
2022-08-30T01:15:25.799Z,3.37
2022-08-30T01:17:55.299Z,2.90
2022-08-30T01:20:25.347Z,3.33
2022-08-30T01:23:06.875Z,3.30
2022-08-30T01:25:35.965Z,3.07
2022-08-30T01:28:05.734Z,3.60
2022-08-30T01:30:33.219Z,3.37
2022-08-30T01:33:01.395Z,3.00
2022-08-30T01:35:29.188Z,3.50
2022-08-30T01:37:56.874Z,2.90
2022-08-30T01:40:25.517Z,3.10
2022-08-30T01:42:52.762Z,3.10
2022-08-30T01:45:19.995Z,3.40
2022-08-30T01:47:47.155Z,3.33
2022-08-30T01:50:14.286Z,3.13
2022-08-30T01:52:41.615Z,4.03
2022-08-30T01:55:09.613Z,3.30
2022-08-30T01:57:38.104Z,2.97
2022-08-30T02:00:06.434Z,3.17
2022-08-30T02:02:39.098Z,3.47
2022-08-30T02:05:06.559Z,3.10
2022-08-30T02:07:33.677Z,3.43
2022-08-30T02:10:00.867Z,3.27
2022-08-30T02:12:28.021Z,3.50
2022-08-30T02:14:56.553Z,3.57
2022-08-30T02:17:23.706Z,3.20
2022-08-30T02:19:50.852Z,3.20
2022-08-30T02:22:18.000Z,3.73
2022-08-30T02:24:45.153Z,3.30
2022-08-30T02:27:12.272Z,4.17
2022-08-30T02:29:39.439Z,3.60
2022-08-30T02:32:07.927Z,3.83
2022-08-30T02:34:35.081Z,3.73
2022-08-30T02:37:02.214Z,3.67
2022-08-30T02:39:29.385Z,3.77
2022-08-30T02:41:56.556Z,4.13
2022-08-30T02:44:23.747Z,3.50
2022-08-30T02:46:50.901Z,4.20
2022-08-30T02:49:34.692Z,4.57
2022-08-30T02:52:02.622Z,4.83
2022-08-30T02:54:29.740Z,4.40
2022-08-30T02:56:56.892Z,3.70
2022-08-30T02:59:24.038Z,3.30
2022-08-30T03:01:51.191Z,4.00
2022-08-30T03:04:20.319Z,4.60
2022-08-30T03:06:53.862Z,4.90
2022-08-30T03:09:21.013Z,4.23
2022-08-30T03:11:48.192Z,3.90
2022-08-30T03:14:15.335Z,4.23
2022-08-30T03:16:42.526Z,4.13
2022-08-30T03:19:09.688Z,5.30
2022-08-30T03:21:38.370Z,4.40
2022-08-30T03:24:05.789Z,4.50
2022-08-30T03:26:32.951Z,4.93
2022-08-30T03:29:00.077Z,4.67
2022-08-30T03:31:27.271Z,4.70
2022-08-30T03:33:54.458Z,3.30
2022-08-30T03:36:21.646Z,4.57
2022-08-30T03:38:50.160Z,4.57
2022-08-30T03:41:17.369Z,4.63
2022-08-30T03:43:44.573Z,4.40
2022-08-30T03:46:11.993Z,4.30
2022-08-30T03:48:39.203Z,4.00
2022-08-30T03:51:06.569Z,3.87
2022-08-30T03:53:33.753Z,4.40
2022-08-30T03:56:02.419Z,4.83
2022-08-30T03:58:29.592Z,4.47
2022-08-30T04:00:56.806Z,4.90
2022-08-30T04:03:24.013Z,5.10
2022-08-30T04:05:51.165Z,4.50
2022-08-30T04:08:18.312Z,4.20
2022-08-30T04:10:45.492Z,4.30
2022-08-30T04:13:14.186Z,4.10
2022-08-30T04:15:42.703Z,4.60
2022-08-30T04:18:09.855Z,5.30
2022-08-30T04:20:37.030Z,4.97
2022-08-30T04:23:04.466Z,4.63
2022-08-30T04:25:31.660Z,4.50
2022-08-30T04:27:58.796Z,4.23
2022-08-30T04:30:27.296Z,4.93
2022-08-30T04:32:58.138Z,4.30
2022-08-30T04:35:26.454Z,5.23
2022-08-30T04:37:53.640Z,4.70
2022-08-30T04:40:20.964Z,4.40
2022-08-30T04:42:48.164Z,5.00
2022-08-30T04:45:16.312Z,4.83
2022-08-30T04:47:45.186Z,5.37
2022-08-30T04:50:13.390Z,4.93
2022-08-30T04:52:40.631Z,5.30
2022-08-30T04:55:08.816Z,4.67
2022-08-30T04:57:35.988Z,4.67
2022-08-30T05:00:03.471Z,5.43
2022-08-30T05:02:30.662Z,4.80
2022-08-30T05:04:59.205Z,5.57
2022-08-30T05:07:26.338Z,4.80
2022-08-30T05:09:53.485Z,5.23
2022-08-30T05:12:20.625Z,4.60
2022-08-30T05:14:47.800Z,4.50
2022-08-30T05:17:14.955Z,5.10
2022-08-30T05:19:42.287Z,4.60
2022-08-30T05:22:10.794Z,5.17
2022-08-30T05:24:37.931Z,4.87
2022-08-30T05:27:05.220Z,5.53
2022-08-30T05:29:32.388Z,4.83
2022-08-30T05:31:59.825Z,5.00
2022-08-30T05:34:27.093Z,3.80
2022-08-30T05:36:54.255Z,4.40
2022-08-30T05:39:22.763Z,4.67
2022-08-30T05:41:50.430Z,4.50
2022-08-30T05:44:17.664Z,5.00
2022-08-30T05:46:44.825Z,5.20
2022-08-30T05:49:12.252Z,4.30
2022-08-30T05:51:41.022Z,4.70
2022-08-30T05:54:11.069Z,4.90
2022-08-30T05:56:39.708Z,5.13
2022-08-30T05:59:07.902Z,4.43
2022-08-30T06:01:36.176Z,4.80
2022-08-30T06:04:04.415Z,5.23
2022-08-30T06:06:32.586Z,4.50
2022-08-30T06:08:59.739Z,5.33
2022-08-30T06:11:26.993Z,4.67
2022-08-30T06:13:55.580Z,4.80
2022-08-30T06:16:24.177Z,4.97
2022-08-30T06:18:51.382Z,4.40
2022-08-30T06:21:18.845Z,4.30
2022-08-30T06:23:46.418Z,4.63
2022-08-30T06:26:13.935Z,4.10
2022-08-30T06:28:41.111Z,3.93
2022-08-30T06:31:10.270Z,4.60
2022-08-30T06:33:37.826Z,4.03
2022-08-30T06:36:06.178Z,4.80
2022-08-30T06:38:33.386Z,3.73
2022-08-30T06:41:00.544Z,4.07
2022-08-30T06:43:27.732Z,3.77
2022-08-30T06:45:54.911Z,4.07
2022-08-30T06:48:23.390Z,3.90
2022-08-30T06:50:53.817Z,3.97
2022-08-30T06:53:21.087Z,3.90
2022-08-30T06:55:55.736Z,3.70
2022-08-30T06:58:22.857Z,3.97
2022-08-30T07:00:50.008Z,4.00
2022-08-30T07:03:17.224Z,4.37
2022-08-30T07:05:45.750Z,4.60
2022-08-30T07:08:12.957Z,3.60
2022-08-30T07:10:40.199Z,3.97
2022-08-30T07:13:07.422Z,3.73
2022-08-30T07:15:38.449Z,3.67
2022-08-30T07:18:05.736Z,3.73
2022-08-30T07:20:40.116Z,4.33
2022-08-30T07:23:09.747Z,3.63
2022-08-30T07:25:37.342Z,3.37
2022-08-30T07:28:05.149Z,3.43
2022-08-30T07:30:32.431Z,3.73
2022-08-30T07:32:59.627Z,3.10
2022-08-30T07:35:26.898Z,3.70
2022-08-30T07:37:54.068Z,4.13
2022-08-30T07:40:23.118Z,4.37
2022-08-30T07:42:50.340Z,3.70
2022-08-30T07:45:17.593Z,3.53
2022-08-30T07:47:44.865Z,3.80
2022-08-30T07:50:12.697Z,3.50
2022-08-30T07:52:39.985Z,3.60
2022-08-30T07:55:07.465Z,3.90
2022-08-30T07:57:35.956Z,3.50
2022-08-30T08:00:03.420Z,5.43
2022-08-30T08:02:38.873Z,3.40
2022-08-30T08:05:06.403Z,3.90
2022-08-30T08:07:33.553Z,3.13
2022-08-30T08:10:00.824Z,3.20
2022-08-30T08:12:28.149Z,6.30
2022-08-30T08:14:56.648Z,3.43
2022-08-30T08:17:23.812Z,3.63
2022-08-30T08:19:51.082Z,3.17
2022-08-30T08:22:21.884Z,2.93
2022-08-30T08:24:49.180Z,3.27
2022-08-30T08:27:16.766Z,3.97
2022-08-30T08:29:43.922Z,3.60
2022-08-30T08:32:12.550Z,3.90
2022-08-30T08:34:39.749Z,3.23
2022-08-30T08:37:06.942Z,2.80
2022-08-30T08:39:34.097Z,2.93
2022-08-30T08:42:04.608Z,3.35
2022-08-30T08:44:38.565Z,3.35
2022-08-30T08:47:09.123Z,3.10
2022-08-30T08:49:38.274Z,3.03
2022-08-30T08:52:06.077Z,3.38
2022-08-30T08:54:35.767Z,3.20
2022-08-30T08:57:03.091Z,3.38
2022-08-30T08:59:30.297Z,3.35
2022-08-30T09:02:00.081Z,3.30
2022-08-30T09:04:31.018Z,3.33
2022-08-30T09:07:01.520Z,3.78
2022-08-30T09:09:29.802Z,4.13
2022-08-30T09:11:56.955Z,2.80
2022-08-30T09:14:29.978Z,3.35
2022-08-30T09:16:59.119Z,3.20
2022-08-30T09:19:34.979Z,3.60
2022-08-30T09:22:05.179Z,3.05
2022-08-30T09:24:43.059Z,3.30
2022-08-30T09:27:18.006Z,3.22
2022-08-30T09:29:51.002Z,2.87
2022-08-30T09:32:25.594Z,2.80
2022-08-30T09:34:52.989Z,3.00
2022-08-30T09:37:29.070Z,2.80
2022-08-30T09:39:56.221Z,2.50
2022-08-30T09:42:23.931Z,3.17
2022-08-30T09:44:51.073Z,2.63
2022-08-30T09:47:24.019Z,3.28
2022-08-30T09:50:02.704Z,2.40
2022-08-30T09:52:37.919Z,2.65
2022-08-30T09:55:10.618Z,2.88
2022-08-30T09:57:41.439Z,3.17
2022-08-30T10:00:13.512Z,3.08
2022-08-30T10:02:48.666Z,2.53
2022-08-30T10:05:19.358Z,3.20
2022-08-30T10:07:53.589Z,2.90
2022-08-30T10:10:23.733Z,2.80
2022-08-30T10:12:56.002Z,3.20
2022-08-30T10:15:26.400Z,2.70
2022-08-30T10:17:56.492Z,3.40
2022-08-30T10:20:27.242Z,3.17
2022-08-30T10:22:58.676Z,2.80
2022-08-30T10:25:29.493Z,3.17
2022-08-30T10:27:59.706Z,3.60
2022-08-30T10:30:28.516Z,2.65
2022-08-30T10:32:59.365Z,3.47
2022-08-30T10:35:28.215Z,3.95
2022-08-30T10:37:59.098Z,3.20
2022-08-30T10:40:31.108Z,4.05
2022-08-30T10:43:00.980Z,4.32
2022-08-30T10:45:30.515Z,2.72
2022-08-30T10:47:59.930Z,3.22
2022-08-30T10:50:29.294Z,3.20
2022-08-30T10:53:00.373Z,3.20
2022-08-30T10:55:29.470Z,3.13
2022-08-30T10:58:00.053Z,3.17
2022-08-30T11:00:29.240Z,3.20
2022-08-30T11:03:20.238Z,3.37
2022-08-30T11:06:02.436Z,3.30
2022-08-30T11:08:42.224Z,3.20
2022-08-30T11:11:14.785Z,3.03
2022-08-30T11:13:42.392Z,2.60
2022-08-30T11:16:11.495Z,3.17
2022-08-30T11:18:43.419Z,3.00
2022-08-30T11:21:18.377Z,3.50
2022-08-30T11:24:00.137Z,3.30
2022-08-30T11:26:46.158Z,2.40
2022-08-30T11:29:28.690Z,2.83
2022-08-30T11:31:56.895Z,3.47
2022-08-30T11:34:43.824Z,3.30
2022-08-30T11:37:11.891Z,2.70
2022-08-30T11:39:53.744Z,3.27
2022-08-30T11:42:32.611Z,3.23
2022-08-30T11:45:18.434Z,2.97
2022-08-30T11:47:47.171Z,3.17
2022-08-30T11:50:17.680Z,3.00
2022-08-30T11:52:51.194Z,2.67
2022-08-30T11:55:25.812Z,2.77
2022-08-30T11:57:57.427Z,2.87
2022-08-30T12:00:30.237Z,3.40
2022-08-30T12:03:00.222Z,3.47
2022-08-30T12:05:45.914Z,3.70
2022-08-30T12:08:30.248Z,3.30
2022-08-30T12:10:59.840Z,2.97
2022-08-30T12:13:43.209Z,3.30
2022-08-30T12:16:11.190Z,2.80
2022-08-30T12:18:42.726Z,3.00
2022-08-30T12:21:23.423Z,3.33
2022-08-30T12:23:52.179Z,3.33
2022-08-30T12:26:30.842Z,3.07
2022-08-30T12:29:09.492Z,3.57
2022-08-30T12:31:40.032Z,3.67
2022-08-30T12:34:07.370Z,3.37
2022-08-30T12:36:36.873Z,3.90
2022-08-30T12:39:09.177Z,3.30
2022-08-30T12:41:43.312Z,3.07
2022-08-30T12:44:14.714Z,3.00
2022-08-30T12:46:42.248Z,3.43
2022-08-30T12:49:09.488Z,3.57
2022-08-30T12:51:38.179Z,3.27
2022-08-30T12:54:13.535Z,3.50
2022-08-30T12:56:53.398Z,3.07
2022-08-30T12:59:40.009Z,3.60
2022-08-30T13:02:20.835Z,3.13
2022-08-30T13:04:48.942Z,3.27
2022-08-30T13:07:26.789Z,3.30
2022-08-30T13:10:00.870Z,3.10
2022-08-30T13:12:29.582Z,3.33
2022-08-30T13:15:09.921Z,3.30
2022-08-30T13:17:37.155Z,3.20
2022-08-30T13:20:06.498Z,2.90
2022-08-30T13:22:34.768Z,3.03
2022-08-30T13:25:02.240Z,2.80
2022-08-30T13:27:31.175Z,2.90
2022-08-30T13:30:07.795Z,2.90
2022-08-30T13:32:40.944Z,3.00
2022-08-30T13:35:08.936Z,3.33
2022-08-30T13:37:52.168Z,2.80
2022-08-30T13:40:20.330Z,3.10
2022-08-30T13:42:48.922Z,3.40
2022-08-30T13:48:04.426Z,2.47
2022-08-30T13:50:33.646Z,3.10
2022-08-30T13:53:00.915Z,2.77
2022-08-30T13:55:28.446Z,3.57
2022-08-30T13:57:57.590Z,2.93
2022-08-30T14:00:25.766Z,2.93
2022-08-30T14:02:54.691Z,3.07
2022-08-30T14:10:58.308Z,3.30
2022-08-30T14:13:26.928Z,2.80
2022-08-30T14:18:43.846Z,3.30
2022-08-30T14:21:11.093Z,3.20
2022-08-30T14:23:38.240Z,3.00
2022-08-30T14:26:10.169Z,3.30
2022-08-30T14:28:38.718Z,2.97
2022-08-30T14:31:06.475Z,3.20
2022-08-30T14:33:33.718Z,3.63
2022-08-30T14:36:00.887Z,3.30
2022-08-30T14:38:28.168Z,3.50
2022-08-30T14:40:55.308Z,3.70
2022-08-30T14:43:22.425Z,4.00
2022-08-30T14:45:52.404Z,3.83
2022-08-30T14:48:19.675Z,3.37
2022-08-30T14:50:46.934Z,4.07
2022-08-30T14:53:14.121Z,4.00
2022-08-30T14:55:41.463Z,3.67
2022-08-30T14:58:08.645Z,3.70
2022-08-30T15:00:37.277Z,3.20
2022-08-30T15:03:06.237Z,3.40
2022-08-30T15:05:33.411Z,3.97
2022-08-30T15:08:00.580Z,3.20
2022-08-30T15:10:27.741Z,4.57
2022-08-30T15:12:55.015Z,4.00
2022-08-30T15:15:22.276Z,3.40
2022-08-30T15:17:49.834Z,4.20
2022-08-30T15:20:18.473Z,3.40
2022-08-30T15:22:46.220Z,3.40
2022-08-30T15:25:14.432Z,3.13
2022-08-30T15:27:41.661Z,4.30
2022-08-30T15:30:10.942Z,3.30
2022-08-30T15:32:38.350Z,3.60
2022-08-30T15:35:06.032Z,3.83
2022-08-30T15:37:36.591Z,4.00
2022-08-30T15:40:04.526Z,3.47
2022-08-30T15:42:32.004Z,3.80
2022-08-30T15:45:00.316Z,3.90
2022-08-30T15:47:27.458Z,3.43
2022-08-30T15:49:55.219Z,3.10
2022-08-30T15:52:22.651Z,3.53
2022-08-30T15:54:51.262Z,3.60
2022-08-30T15:57:18.552Z,3.50
2022-08-30T15:59:45.810Z,2.87
2022-08-30T16:02:13.062Z,3.10
2022-08-30T16:04:40.609Z,3.20
2022-08-30T16:07:08.915Z,2.90
2022-08-30T16:09:36.432Z,3.27
2022-08-30T16:12:07.549Z,3.20
2022-08-30T16:14:37.390Z,3.50
2022-08-30T16:17:05.153Z,3.33
2022-08-30T16:19:32.297Z,3.07
2022-08-30T16:21:59.509Z,3.30
2022-08-30T16:24:26.883Z,3.07
2022-08-30T16:26:54.218Z,3.17
2022-08-30T16:29:22.690Z,3.23
2022-08-30T16:31:49.901Z,2.67
2022-08-30T16:34:18.151Z,3.30
2022-08-30T16:36:45.843Z,3.30
2022-08-30T16:39:13.028Z,3.67
2022-08-30T16:41:40.264Z,2.67
2022-08-30T16:44:08.456Z,2.97
2022-08-30T16:46:37.134Z,3.20
2022-08-30T16:49:04.426Z,3.57
2022-08-30T16:51:32.386Z,3.53
2022-08-30T16:54:03.481Z,2.90
2022-08-30T16:56:32.033Z,3.43
2022-08-30T16:59:02.426Z,2.70
2022-08-30T17:01:49.161Z,2.67
2022-08-30T17:04:18.467Z,2.60
2022-08-30T17:06:46.643Z,2.83
2022-08-30T17:09:15.068Z,3.10
2022-08-30T17:11:42.865Z,2.97
2022-08-30T17:14:10.460Z,2.70
2022-08-30T17:16:38.059Z,2.77
2022-08-30T17:19:07.759Z,2.60
2022-08-30T17:21:34.934Z,3.17
2022-08-30T17:24:03.304Z,2.73
2022-08-30T17:26:31.104Z,2.77
2022-08-30T17:28:58.577Z,3.00
2022-08-30T17:31:25.782Z,3.10
2022-08-30T17:33:53.859Z,2.93
2022-08-30T17:36:23.662Z,2.77
2022-08-30T17:38:50.773Z,3.07
2022-08-30T17:41:17.959Z,2.50
2022-08-30T17:43:45.162Z,2.50
2022-08-30T17:46:13.366Z,2.30
2022-08-30T17:48:41.076Z,2.77
2022-08-30T17:51:08.267Z,2.93
2022-08-30T17:53:37.753Z,2.23
2022-08-30T17:56:05.381Z,2.30
2022-08-30T17:58:32.834Z,2.60
2022-08-30T18:01:05.291Z,2.50
2022-08-30T18:03:38.982Z,2.47
2022-08-30T18:06:07.198Z,2.83
2022-08-30T18:08:34.854Z,2.40
2022-08-30T18:11:05.937Z,2.57
2022-08-30T18:13:34.113Z,2.53
2022-08-30T18:16:02.064Z,2.73
2022-08-30T18:18:29.660Z,2.00
2022-08-30T18:20:56.922Z,2.30
2022-08-30T18:23:24.550Z,2.93
2022-08-30T18:25:55.424Z,3.03
2022-08-30T18:28:23.960Z,2.20
2022-08-30T18:30:53.019Z,1.73
2022-08-30T18:33:20.761Z,2.20
2022-08-30T18:35:48.762Z,2.60
2022-08-30T18:38:16.009Z,2.00
2022-08-30T18:40:43.290Z,2.10
2022-08-30T18:43:11.117Z,2.20
2022-08-30T18:45:42.548Z,2.10
2022-08-30T18:48:10.021Z,2.23
2022-08-30T18:50:37.866Z,2.10
2022-08-30T18:53:06.587Z,2.50
2022-08-30T18:55:36.607Z,2.80
2022-08-30T18:58:04.052Z,2.27
2022-08-30T19:00:31.346Z,2.43
2022-08-30T19:02:59.875Z,2.17
2022-08-30T19:05:27.349Z,1.93
2022-08-30T19:07:55.092Z,2.30
2022-08-30T19:10:23.353Z,2.53
2022-08-30T19:12:51.329Z,2.30
2022-08-30T19:15:18.710Z,2.37
2022-08-30T19:17:46.219Z,2.10
2022-08-30T19:20:17.438Z,2.40
2022-08-30T19:23:09.071Z,2.53
2022-08-30T19:25:31.732Z,3.00
2022-08-30T19:27:58.920Z,2.73
2022-08-30T19:30:29.849Z,2.17
2022-08-30T19:32:57.486Z,2.70
2022-08-30T19:35:26.048Z,2.83
2022-08-30T19:37:53.248Z,2.20
2022-08-30T19:40:20.682Z,2.63
2022-08-30T19:42:48.316Z,2.60
2022-08-30T19:45:16.157Z,2.63
2022-08-30T19:47:43.296Z,3.10
2022-08-30T19:50:10.696Z,2.77
2022-08-30T19:52:39.502Z,2.90
2022-08-30T19:55:08.010Z,2.63
2022-08-30T19:57:35.221Z,2.97
2022-08-30T20:00:02.759Z,3.23
2022-08-30T20:02:38.732Z,3.10
2022-08-30T20:05:06.432Z,2.90
2022-08-30T20:07:33.957Z,3.10
2022-08-30T20:10:03.211Z,2.30
2022-08-30T20:12:30.694Z,2.40
2022-08-30T20:14:58.768Z,2.97
2022-08-30T20:17:42.344Z,2.77
2022-08-30T20:20:15.559Z,3.20
2022-08-30T20:22:50.569Z,2.53
2022-08-30T20:25:22.720Z,2.90
2022-08-30T20:27:49.897Z,2.63
2022-08-30T20:30:17.962Z,2.87
2022-08-30T20:32:45.121Z,3.37
2022-08-30T20:35:12.367Z,3.07
2022-08-30T20:37:39.561Z,3.27
2022-08-30T20:40:07.826Z,2.93
2022-08-30T20:42:36.882Z,2.60
2022-08-30T20:45:04.866Z,2.77
2022-08-30T20:47:32.061Z,3.00
2022-08-30T20:49:59.184Z,2.77
2022-08-30T20:52:26.339Z,3.07
2022-08-30T20:54:54.572Z,2.83
2022-08-30T20:57:24.489Z,2.60
2022-08-30T20:59:53.102Z,2.80
2022-08-30T21:02:20.285Z,3.47
2022-08-30T21:04:47.595Z,2.80
2022-08-30T21:07:14.733Z,2.90
2022-08-30T21:09:41.898Z,3.10
2022-08-30T21:12:09.659Z,3.00
2022-08-30T21:14:36.785Z,2.97
2022-08-30T21:17:05.410Z,2.40
2022-08-30T21:19:32.572Z,2.73
2022-08-30T21:21:59.833Z,2.80
2022-08-30T21:24:26.946Z,3.20
2022-08-30T21:26:54.105Z,3.53
2022-08-30T21:29:21.258Z,2.70
2022-08-30T21:31:48.420Z,3.00
2022-08-30T21:34:17.139Z,2.83
2022-08-30T21:36:45.237Z,3.10
2022-08-30T21:39:13.216Z,3.40
2022-08-30T21:41:40.353Z,3.27
2022-08-30T21:44:08.621Z,2.40
2022-08-30T21:46:36.482Z,2.93
2022-08-30T21:49:05.136Z,2.77
2022-08-30T21:51:36.135Z,2.87
2022-08-30T21:54:03.443Z,2.87
2022-08-30T21:56:30.788Z,2.83
2022-08-30T21:58:57.948Z,2.70
2022-08-30T22:01:26.183Z,3.10
2022-08-30T22:03:54.134Z,2.90
2022-08-30T22:06:21.297Z,2.93
2022-08-30T22:08:53.770Z,2.80
2022-08-30T22:11:22.622Z,3.13
2022-08-30T22:13:50.276Z,3.37
2022-08-30T22:16:17.597Z,3.43
2022-08-30T22:18:45.044Z,2.67
2022-08-30T22:21:13.330Z,3.00
2022-08-30T22:23:40.646Z,3.00
2022-08-30T22:26:09.936Z,3.33
2022-08-30T22:28:37.507Z,2.50
2022-08-30T22:31:06.007Z,3.10
2022-08-30T22:33:33.194Z,3.40
2022-08-30T22:36:04.920Z,3.20
2022-08-30T22:38:32.037Z,2.83
2022-08-30T22:40:59.263Z,2.63
2022-08-30T22:43:27.763Z,3.13
2022-08-30T22:45:56.326Z,2.97
2022-08-30T22:48:23.497Z,3.23
2022-08-30T22:50:50.640Z,2.93
2022-08-30T22:53:17.915Z,3.20
2022-08-30T22:55:45.229Z,2.73
2022-08-30T22:58:12.618Z,2.77
2022-08-30T23:00:46.368Z,3.50
2022-08-30T23:03:22.408Z,3.07
2022-08-30T23:05:49.602Z,2.90
2022-08-30T23:08:16.721Z,2.67
2022-08-30T23:10:43.905Z,2.83
2022-08-30T23:13:11.117Z,3.10
2022-08-30T23:15:38.256Z,3.20
2022-08-30T23:18:06.972Z,2.87
2022-08-30T23:20:34.396Z,3.00
2022-08-30T23:23:01.532Z,2.90
2022-08-30T23:25:32.090Z,2.57
2022-08-30T23:28:08.761Z,2.60
2022-08-30T23:30:36.289Z,2.60
2022-08-30T23:33:03.415Z,2.33
2022-08-30T23:35:31.902Z,3.03
2022-08-30T23:37:59.095Z,2.80
2022-08-30T23:40:26.307Z,3.20
2022-08-30T23:42:53.467Z,3.47
2022-08-30T23:45:20.597Z,2.77
2022-08-30T23:47:47.719Z,3.00
2022-08-30T23:50:14.864Z,3.70
2022-08-30T23:52:43.362Z,3.90
2022-08-30T23:55:10.476Z,3.50
2022-08-30T23:57:37.662Z,4.50
